sensor_id;sensor_type;location;lat;lon;timestamp;P1;durP1;ratioP1;P2;durP2;ratioP2
4700;SDS011;8724;51.272;6.554;2022-10-23T00:01:11;5.40;;;2.87;;
4700;SDS011;8724;51.272;6.554;2022-10-23T00:03:40;4.00;;;3.03;;
4700;SDS011;8724;51.272;6.554;2022-10-23T00:06:11;4.47;;;3.20;;
4700;SDS011;8724;51.272;6.554;2022-10-23T00:08:40;3.97;;;3.00;;
4700;SDS011;8724;51.272;6.554;2022-10-23T00:11:08;3.13;;;2.80;;
4700;SDS011;8724;51.272;6.554;2022-10-23T00:13:39;3.83;;;2.93;;
4700;SDS011;8724;51.272;6.554;2022-10-23T00:16:08;6.50;;;3.00;;
4700;SDS011;8724;51.272;6.554;2022-10-23T00:18:36;4.13;;;2.70;;
4700;SDS011;8724;51.272;6.554;2022-10-23T00:21:06;6.20;;;3.40;;
4700;SDS011;8724;51.272;6.554;2022-10-23T00:23:37;2.87;;;2.67;;
4700;SDS011;8724;51.272;6.554;2022-10-23T00:26:06;6.53;;;3.27;;
4700;SDS011;8724;51.272;6.554;2022-10-23T00:28:36;4.60;;;2.60;;
4700;SDS011;8724;51.272;6.554;2022-10-23T00:31:05;7.13;;;3.27;;
4700;SDS011;8724;51.272;6.554;2022-10-23T00:33:33;3.73;;;2.70;;
4700;SDS011;8724;51.272;6.554;2022-10-23T00:36:03;3.17;;;2.53;;
4700;SDS011;8724;51.272;6.554;2022-10-23T00:38:32;4.20;;;2.70;;
4700;SDS011;8724;51.272;6.554;2022-10-23T00:41:03;6.50;;;3.20;;
4700;SDS011;8724;51.272;6.554;2022-10-23T00:43:33;7.13;;;3.87;;
4700;SDS011;8724;51.272;6.554;2022-10-23T00:46:20;7.80;;;3.27;;
4700;SDS011;8724;51.272;6.554;2022-10-23T00:48:49;5.50;;;3.00;;
4700;SDS011;8724;51.272;6.554;2022-10-23T00:51:18;4.87;;;2.90;;
4700;SDS011;8724;51.272;6.554;2022-10-23T00:53:46;4.17;;;2.60;;
4700;SDS011;8724;51.272;6.554;2022-10-23T00:56:33;4.67;;;3.37;;
4700;SDS011;8724;51.272;6.554;2022-10-23T00:59:05;3.17;;;2.50;;
4700;SDS011;8724;51.272;6.554;2022-10-23T01:01:33;5.03;;;2.60;;
4700;SDS011;8724;51.272;6.554;2022-10-23T01:04:02;6.57;;;3.13;;
4700;SDS011;8724;51.272;6.554;2022-10-23T01:06:33;9.20;;;3.13;;
4700;SDS011;8724;51.272;6.554;2022-10-23T01:09:07;8.30;;;3.53;;
4700;SDS011;8724;51.272;6.554;2022-10-23T01:11:41;4.53;;;2.67;;
4700;SDS011;8724;51.272;6.554;2022-10-23T01:14:15;3.87;;;3.17;;
4700;SDS011;8724;51.272;6.554;2022-10-23T01:16:52;6.43;;;3.40;;
4700;SDS011;8724;51.272;6.554;2022-10-23T01:19:33;6.93;;;3.17;;
4700;SDS011;8724;51.272;6.554;2022-10-23T01:22:11;6.53;;;2.80;;
4700;SDS011;8724;51.272;6.554;2022-10-23T01:25:00;5.73;;;2.90;;
4700;SDS011;8724;51.272;6.554;2022-10-23T01:27:38;4.70;;;2.63;;
4700;SDS011;8724;51.272;6.554;2022-10-23T01:30:10;4.77;;;2.67;;
4700;SDS011;8724;51.272;6.554;2022-10-23T01:32:43;4.63;;;2.93;;
4700;SDS011;8724;51.272;6.554;2022-10-23T01:35:17;5.70;;;3.10;;
4700;SDS011;8724;51.272;6.554;2022-10-23T01:37:57;5.10;;;3.00;;
4700;SDS011;8724;51.272;6.554;2022-10-23T01:40:32;3.07;;;2.30;;
4700;SDS011;8724;51.272;6.554;2022-10-23T01:43:05;5.60;;;2.80;;
4700;SDS011;8724;51.272;6.554;2022-10-23T01:45:39;3.17;;;2.50;;
4700;SDS011;8724;51.272;6.554;2022-10-23T01:48:14;7.27;;;3.23;;
4700;SDS011;8724;51.272;6.554;2022-10-23T01:50:48;6.57;;;3.27;;
4700;SDS011;8724;51.272;6.554;2022-10-23T01:53:17;5.37;;;2.50;;
4700;SDS011;8724;51.272;6.554;2022-10-23T01:55:47;5.53;;;2.93;;
4700;SDS011;8724;51.272;6.554;2022-10-23T01:58:22;5.00;;;2.60;;
4700;SDS011;8724;51.272;6.554;2022-10-23T02:00:53;4.07;;;2.33;;
4700;SDS011;8724;51.272;6.554;2022-10-23T02:03:28;2.80;;;2.40;;
4700;SDS011;8724;51.272;6.554;2022-10-23T02:05:59;6.10;;;2.90;;
4700;SDS011;8724;51.272;6.554;2022-10-23T02:08:28;4.23;;;2.93;;
4700;SDS011;8724;51.272;6.554;2022-10-23T02:10:59;6.00;;;2.20;;
4700;SDS011;8724;51.272;6.554;2022-10-23T02:13:36;4.10;;;2.30;;
4700;SDS011;8724;51.272;6.554;2022-10-23T02:16:16;4.47;;;2.63;;
4700;SDS011;8724;51.272;6.554;2022-10-23T02:18:50;7.67;;;2.60;;
4700;SDS011;8724;51.272;6.554;2022-10-23T02:21:26;5.53;;;2.30;;
4700;SDS011;8724;51.272;6.554;2022-10-23T02:24:00;3.40;;;2.43;;
4700;SDS011;8724;51.272;6.554;2022-10-23T02:26:36;4.60;;;1.83;;
4700;SDS011;8724;51.272;6.554;2022-10-23T02:29:09;4.53;;;2.57;;
4700;SDS011;8724;51.272;6.554;2022-10-23T02:31:44;3.27;;;2.30;;
4700;SDS011;8724;51.272;6.554;2022-10-23T02:34:12;4.43;;;2.50;;
4700;SDS011;8724;51.272;6.554;2022-10-23T02:36:40;3.70;;;2.33;;
4700;SDS011;8724;51.272;6.554;2022-10-23T02:39:10;3.00;;;2.33;;
4700;SDS011;8724;51.272;6.554;2022-10-23T02:41:40;5.27;;;2.70;;
4700;SDS011;8724;51.272;6.554;2022-10-23T02:44:18;5.10;;;2.40;;
4700;SDS011;8724;51.272;6.554;2022-10-23T02:47:03;3.53;;;2.70;;
4700;SDS011;8724;51.272;6.554;2022-10-23T02:49:38;9.90;;;2.60;;
4700;SDS011;8724;51.272;6.554;2022-10-23T02:52:16;2.87;;;2.17;;
4700;SDS011;8724;51.272;6.554;2022-10-23T02:54:58;4.73;;;2.20;;
4700;SDS011;8724;51.272;6.554;2022-10-23T02:57:45;4.47;;;2.43;;
4700;SDS011;8724;51.272;6.554;2022-10-23T03:00:21;5.90;;;2.60;;
4700;SDS011;8724;51.272;6.554;2022-10-23T03:02:52;3.17;;;2.30;;
4700;SDS011;8724;51.272;6.554;2022-10-23T03:05:28;4.83;;;2.53;;
4700;SDS011;8724;51.272;6.554;2022-10-23T03:07:58;4.60;;;2.33;;
4700;SDS011;8724;51.272;6.554;2022-10-23T03:10:29;6.10;;;2.10;;
4700;SDS011;8724;51.272;6.554;2022-10-23T03:12:57;5.10;;;2.63;;
4700;SDS011;8724;51.272;6.554;2022-10-23T03:15:31;3.40;;;1.97;;
4700;SDS011;8724;51.272;6.554;2022-10-23T03:18:00;6.03;;;2.30;;
4700;SDS011;8724;51.272;6.554;2022-10-23T03:20:28;4.90;;;1.90;;
4700;SDS011;8724;51.272;6.554;2022-10-23T03:22:56;3.30;;;2.20;;
4700;SDS011;8724;51.272;6.554;2022-10-23T03:25:25;2.23;;;1.80;;
4700;SDS011;8724;51.272;6.554;2022-10-23T03:27:56;5.17;;;2.23;;
4700;SDS011;8724;51.272;6.554;2022-10-23T03:30:25;4.80;;;2.33;;
4700;SDS011;8724;51.272;6.554;2022-10-23T03:32:55;4.93;;;2.10;;
4700;SDS011;8724;51.272;6.554;2022-10-23T03:35:23;4.67;;;2.80;;
4700;SDS011;8724;51.272;6.554;2022-10-23T03:37:51;2.50;;;2.10;;
4700;SDS011;8724;51.272;6.554;2022-10-23T03:40:22;3.30;;;2.33;;
4700;SDS011;8724;51.272;6.554;2022-10-23T03:42:51;3.80;;;2.30;;
4700;SDS011;8724;51.272;6.554;2022-10-23T03:45:19;4.00;;;2.30;;
4700;SDS011;8724;51.272;6.554;2022-10-23T03:47:47;4.03;;;2.63;;
4700;SDS011;8724;51.272;6.554;2022-10-23T03:50:18;3.83;;;2.17;;
4700;SDS011;8724;51.272;6.554;2022-10-23T03:52:47;3.07;;;2.27;;
4700;SDS011;8724;51.272;6.554;2022-10-23T03:55:15;5.27;;;2.13;;
4700;SDS011;8724;51.272;6.554;2022-10-23T03:57:44;2.77;;;2.40;;
4700;SDS011;8724;51.272;6.554;2022-10-23T04:00:12;2.70;;;2.23;;
4700;SDS011;8724;51.272;6.554;2022-10-23T04:02:45;2.30;;;1.73;;
4700;SDS011;8724;51.272;6.554;2022-10-23T04:05:15;9.63;;;1.97;;
4700;SDS011;8724;51.272;6.554;2022-10-23T04:07:53;3.90;;;2.17;;
4700;SDS011;8724;51.272;6.554;2022-10-23T04:10:22;4.73;;;2.40;;
4700;SDS011;8724;51.272;6.554;2022-10-23T04:12:50;2.13;;;1.90;;
4700;SDS011;8724;51.272;6.554;2022-10-23T04:15:18;3.17;;;1.80;;
4700;SDS011;8724;51.272;6.554;2022-10-23T04:17:47;2.63;;;1.93;;
4700;SDS011;8724;51.272;6.554;2022-10-23T04:20:15;3.13;;;2.23;;
4700;SDS011;8724;51.272;6.554;2022-10-23T04:22:43;4.20;;;2.33;;
4700;SDS011;8724;51.272;6.554;2022-10-23T04:25:13;2.93;;;2.10;;
4700;SDS011;8724;51.272;6.554;2022-10-23T04:27:43;2.37;;;1.70;;
4700;SDS011;8724;51.272;6.554;2022-10-23T04:30:12;3.47;;;2.10;;
4700;SDS011;8724;51.272;6.554;2022-10-23T04:32:42;3.70;;;2.30;;
4700;SDS011;8724;51.272;6.554;2022-10-23T04:35:10;3.47;;;1.77;;
4700;SDS011;8724;51.272;6.554;2022-10-23T04:37:39;3.10;;;2.33;;
4700;SDS011;8724;51.272;6.554;2022-10-23T04:40:11;2.60;;;1.83;;
4700;SDS011;8724;51.272;6.554;2022-10-23T04:42:41;2.00;;;1.80;;
4700;SDS011;8724;51.272;6.554;2022-10-23T04:45:11;2.10;;;1.77;;
4700;SDS011;8724;51.272;6.554;2022-10-23T04:47:41;8.63;;;2.27;;
4700;SDS011;8724;51.272;6.554;2022-10-23T04:50:11;2.50;;;1.90;;
4700;SDS011;8724;51.272;6.554;2022-10-23T04:52:59;2.13;;;1.77;;
4700;SDS011;8724;51.272;6.554;2022-10-23T04:55:47;2.33;;;1.93;;
4700;SDS011;8724;51.272;6.554;2022-10-23T04:58:36;3.93;;;2.57;;
4700;SDS011;8724;51.272;6.554;2022-10-23T05:01:06;7.33;;;5.43;;
4700;SDS011;8724;51.272;6.554;2022-10-23T05:03:36;31.73;;;24.47;;
4700;SDS011;8724;51.272;6.554;2022-10-23T05:06:06;39.23;;;29.87;;
4700;SDS011;8724;51.272;6.554;2022-10-23T05:08:55;88.90;;;63.37;;
4700;SDS011;8724;51.272;6.554;2022-10-23T05:11:43;68.20;;;53.93;;
4700;SDS011;8724;51.272;6.554;2022-10-23T05:14:14;45.43;;;32.13;;
4700;SDS011;8724;51.272;6.554;2022-10-23T05:16:49;18.50;;;16.00;;
4700;SDS011;8724;51.272;6.554;2022-10-23T05:19:24;11.33;;;9.90;;
4700;SDS011;8724;51.272;6.554;2022-10-23T05:21:57;7.90;;;5.70;;
4700;SDS011;8724;51.272;6.554;2022-10-23T05:24:47;7.60;;;3.93;;
4700;SDS011;8724;51.272;6.554;2022-10-23T05:27:24;4.10;;;2.93;;
4700;SDS011;8724;51.272;6.554;2022-10-23T05:29:56;4.10;;;2.87;;
4700;SDS011;8724;51.272;6.554;2022-10-23T05:32:28;4.33;;;2.10;;
4700;SDS011;8724;51.272;6.554;2022-10-23T05:35:05;3.90;;;2.20;;
4700;SDS011;8724;51.272;6.554;2022-10-23T05:37:36;5.77;;;2.40;;
4700;SDS011;8724;51.272;6.554;2022-10-23T05:40:14;8.73;;;2.07;;
4700;SDS011;8724;51.272;6.554;2022-10-23T05:42:44;4.73;;;2.53;;
4700;SDS011;8724;51.272;6.554;2022-10-23T05:45:18;3.63;;;2.40;;
4700;SDS011;8724;51.272;6.554;2022-10-23T05:48:05;2.80;;;2.43;;
4700;SDS011;8724;51.272;6.554;2022-10-23T05:51:10;1.70;;;1.60;;
4700;SDS011;8724;51.272;6.554;2022-10-23T05:53:53;3.03;;;2.07;;
4700;SDS011;8724;51.272;6.554;2022-10-23T05:56:33;4.40;;;2.27;;
4700;SDS011;8724;51.272;6.554;2022-10-23T05:59:09;5.97;;;1.90;;
4700;SDS011;8724;51.272;6.554;2022-10-23T06:01:52;3.63;;;3.13;;
4700;SDS011;8724;51.272;6.554;2022-10-23T06:04:41;4.03;;;3.60;;
4700;SDS011;8724;51.272;6.554;2022-10-23T06:07:25;8.03;;;4.13;;
4700;SDS011;8724;51.272;6.554;2022-10-23T06:10:04;4.53;;;2.90;;
4700;SDS011;8724;51.272;6.554;2022-10-23T06:12:38;3.63;;;3.07;;
4700;SDS011;8724;51.272;6.554;2022-10-23T06:15:10;3.43;;;2.63;;
4700;SDS011;8724;51.272;6.554;2022-10-23T06:17:55;2.60;;;2.40;;
4700;SDS011;8724;51.272;6.554;2022-10-23T06:20:29;4.50;;;2.80;;
4700;SDS011;8724;51.272;6.554;2022-10-23T06:23:09;3.07;;;2.50;;
4700;SDS011;8724;51.272;6.554;2022-10-23T06:25:56;27.60;;;10.93;;
4700;SDS011;8724;51.272;6.554;2022-10-23T06:28:33;26.33;;;19.37;;
4700;SDS011;8724;51.272;6.554;2022-10-23T06:31:02;17.70;;;14.97;;
4700;SDS011;8724;51.272;6.554;2022-10-23T06:33:33;11.13;;;8.73;;
4700;SDS011;8724;51.272;6.554;2022-10-23T06:36:03;9.33;;;5.87;;
4700;SDS011;8724;51.272;6.554;2022-10-23T06:38:33;5.40;;;4.90;;
4700;SDS011;8724;51.272;6.554;2022-10-23T06:41:05;6.53;;;3.73;;
4700;SDS011;8724;51.272;6.554;2022-10-23T06:43:37;3.60;;;2.40;;
4700;SDS011;8724;51.272;6.554;2022-10-23T06:46:11;3.73;;;2.50;;
4700;SDS011;8724;51.272;6.554;2022-10-23T06:49:04;6.23;;;2.30;;
4700;SDS011;8724;51.272;6.554;2022-10-23T06:51:42;2.03;;;1.93;;
4700;SDS011;8724;51.272;6.554;2022-10-23T06:54:12;5.40;;;2.60;;
4700;SDS011;8724;51.272;6.554;2022-10-23T06:56:49;2.80;;;1.73;;
4700;SDS011;8724;51.272;6.554;2022-10-23T06:59:30;2.60;;;1.80;;
4700;SDS011;8724;51.272;6.554;2022-10-23T07:01:59;3.20;;;2.00;;
4700;SDS011;8724;51.272;6.554;2022-10-23T07:04:28;1.83;;;1.70;;
4700;SDS011;8724;51.272;6.554;2022-10-23T07:06:58;3.60;;;2.20;;
4700;SDS011;8724;51.272;6.554;2022-10-23T07:09:35;2.00;;;1.90;;
4700;SDS011;8724;51.272;6.554;2022-10-23T07:12:19;3.70;;;1.70;;
4700;SDS011;8724;51.272;6.554;2022-10-23T07:14:54;2.90;;;2.07;;
4700;SDS011;8724;51.272;6.554;2022-10-23T07:17:23;2.10;;;1.80;;
4700;SDS011;8724;51.272;6.554;2022-10-23T07:19:52;2.17;;;1.70;;
4700;SDS011;8724;51.272;6.554;2022-10-23T07:22:22;2.40;;;1.97;;
4700;SDS011;8724;51.272;6.554;2022-10-23T07:25:05;47.90;;;37.80;;
4700;SDS011;8724;51.272;6.554;2022-10-23T07:27:36;55.30;;;42.87;;
4700;SDS011;8724;51.272;6.554;2022-10-23T07:30:08;39.30;;;29.77;;
4700;SDS011;8724;51.272;6.554;2022-10-23T07:32:43;24.73;;;19.57;;
4700;SDS011;8724;51.272;6.554;2022-10-23T07:35:38;15.40;;;11.70;;
4700;SDS011;8724;51.272;6.554;2022-10-23T07:38:13;9.43;;;8.23;;
4700;SDS011;8724;51.272;6.554;2022-10-23T07:40:45;5.70;;;4.60;;
4700;SDS011;8724;51.272;6.554;2022-10-23T07:43:15;5.20;;;4.13;;
4700;SDS011;8724;51.272;6.554;2022-10-23T07:45:47;5.43;;;3.43;;
4700;SDS011;8724;51.272;6.554;2022-10-23T07:48:26;3.30;;;2.57;;
4700;SDS011;8724;51.272;6.554;2022-10-23T07:51:00;3.90;;;2.50;;
4700;SDS011;8724;51.272;6.554;2022-10-23T07:53:36;4.20;;;2.77;;
4700;SDS011;8724;51.272;6.554;2022-10-23T07:56:19;3.00;;;1.80;;
4700;SDS011;8724;51.272;6.554;2022-10-23T07:59:28;6.10;;;2.00;;
4700;SDS011;8724;51.272;6.554;2022-10-23T08:02:09;2.00;;;1.80;;
4700;SDS011;8724;51.272;6.554;2022-10-23T08:04:38;3.13;;;1.70;;
4700;SDS011;8724;51.272;6.554;2022-10-23T08:07:25;9.30;;;3.27;;
4700;SDS011;8724;51.272;6.554;2022-10-23T08:09:55;34.87;;;27.57;;
4700;SDS011;8724;51.272;6.554;2022-10-23T08:12:24;39.40;;;31.10;;
4700;SDS011;8724;51.272;6.554;2022-10-23T08:14:53;26.07;;;20.03;;
4700;SDS011;8724;51.272;6.554;2022-10-23T08:17:31;17.20;;;13.90;;
4700;SDS011;8724;51.272;6.554;2022-10-23T08:20:12;10.00;;;8.70;;
4700;SDS011;8724;51.272;6.554;2022-10-23T08:22:44;9.00;;;7.27;;
4700;SDS011;8724;51.272;6.554;2022-10-23T08:25:19;7.00;;;5.60;;
4700;SDS011;8724;51.272;6.554;2022-10-23T08:27:52;6.57;;;4.30;;
4700;SDS011;8724;51.272;6.554;2022-10-23T08:30:20;3.80;;;3.50;;
4700;SDS011;8724;51.272;6.554;2022-10-23T08:32:49;3.60;;;3.30;;
4700;SDS011;8724;51.272;6.554;2022-10-23T08:35:17;6.70;;;3.50;;
4700;SDS011;8724;51.272;6.554;2022-10-23T08:37:47;3.97;;;2.80;;
4700;SDS011;8724;51.272;6.554;2022-10-23T08:40:16;2.53;;;2.27;;
4700;SDS011;8724;51.272;6.554;2022-10-23T08:43:12;1.70;;;1.60;;
4700;SDS011;8724;51.272;6.554;2022-10-23T08:46:03;2.37;;;1.97;;
4700;SDS011;8724;51.272;6.554;2022-10-23T08:48:55;2.00;;;1.80;;
4700;SDS011;8724;51.272;6.554;2022-10-23T08:51:43;2.27;;;1.90;;
4700;SDS011;8724;51.272;6.554;2022-10-23T08:54:18;2.90;;;1.70;;
4700;SDS011;8724;51.272;6.554;2022-10-23T08:56:49;2.60;;;1.90;;
4700;SDS011;8724;51.272;6.554;2022-10-23T08:59:23;4.30;;;1.90;;
4700;SDS011;8724;51.272;6.554;2022-10-23T09:01:59;11.20;;;9.60;;
4700;SDS011;8724;51.272;6.554;2022-10-23T09:04:30;24.10;;;19.37;;
4700;SDS011;8724;51.272;6.554;2022-10-23T09:07:01;17.77;;;14.67;;
4700;SDS011;8724;51.272;6.554;2022-10-23T09:09:42;10.67;;;8.93;;
4700;SDS011;8724;51.272;6.554;2022-10-23T09:12:23;8.27;;;6.17;;
4700;SDS011;8724;51.272;6.554;2022-10-23T09:14:59;6.10;;;4.07;;
4700;SDS011;8724;51.272;6.554;2022-10-23T09:17:41;2.70;;;2.50;;
4700;SDS011;8724;51.272;6.554;2022-10-23T09:20:13;2.97;;;2.77;;
4700;SDS011;8724;51.272;6.554;2022-10-23T09:22:46;2.40;;;2.20;;
4700;SDS011;8724;51.272;6.554;2022-10-23T09:25:18;2.90;;;2.33;;
4700;SDS011;8724;51.272;6.554;2022-10-23T09:27:48;2.63;;;1.97;;
4700;SDS011;8724;51.272;6.554;2022-10-23T09:30:26;3.33;;;1.90;;
4700;SDS011;8724;51.272;6.554;2022-10-23T09:32:57;2.10;;;1.90;;
4700;SDS011;8724;51.272;6.554;2022-10-23T09:35:27;2.50;;;1.70;;
4700;SDS011;8724;51.272;6.554;2022-10-23T09:37:56;2.07;;;1.47;;
4700;SDS011;8724;51.272;6.554;2022-10-23T09:40:28;2.57;;;1.80;;
4700;SDS011;8724;51.272;6.554;2022-10-23T09:43:00;1.47;;;1.20;;
4700;SDS011;8724;51.272;6.554;2022-10-23T09:45:31;1.50;;;1.20;;
4700;SDS011;8724;51.272;6.554;2022-10-23T09:48:14;1.60;;;1.47;;
4700;SDS011;8724;51.272;6.554;2022-10-23T09:50:48;1.67;;;1.57;;
4700;SDS011;8724;51.272;6.554;2022-10-23T09:53:21;4.00;;;1.60;;
4700;SDS011;8724;51.272;6.554;2022-10-23T09:55:58;1.60;;;1.40;;
4700;SDS011;8724;51.272;6.554;2022-10-23T09:58:30;1.50;;;1.40;;
4700;SDS011;8724;51.272;6.554;2022-10-23T10:01:01;1.27;;;1.17;;
4700;SDS011;8724;51.272;6.554;2022-10-23T10:03:50;1.43;;;1.33;;
4700;SDS011;8724;51.272;6.554;2022-10-23T10:06:24;3.07;;;1.57;;
4700;SDS011;8724;51.272;6.554;2022-10-23T10:08:54;2.03;;;1.50;;
4700;SDS011;8724;51.272;6.554;2022-10-23T10:11:32;2.40;;;1.60;;
4700;SDS011;8724;51.272;6.554;2022-10-23T10:17:13;22.73;;;15.43;;
4700;SDS011;8724;51.272;6.554;2022-10-23T10:19:58;13.80;;;10.83;;
4700;SDS011;8724;51.272;6.554;2022-10-23T10:22:55;11.33;;;9.13;;
4700;SDS011;8724;51.272;6.554;2022-10-23T10:25:30;9.00;;;7.60;;
4700;SDS011;8724;51.272;6.554;2022-10-23T10:28:17;10.30;;;7.83;;
4700;SDS011;8724;51.272;6.554;2022-10-23T10:30:55;7.03;;;5.67;;
4700;SDS011;8724;51.272;6.554;2022-10-23T10:33:34;5.00;;;4.53;;
4700;SDS011;8724;51.272;6.554;2022-10-23T10:36:12;4.53;;;3.70;;
4700;SDS011;8724;51.272;6.554;2022-10-23T10:38:57;4.07;;;3.47;;
4700;SDS011;8724;51.272;6.554;2022-10-23T10:41:29;3.83;;;3.47;;
4700;SDS011;8724;51.272;6.554;2022-10-23T10:44:21;3.47;;;3.17;;
4700;SDS011;8724;51.272;6.554;2022-10-23T10:47:05;3.30;;;2.60;;
4700;SDS011;8724;51.272;6.554;2022-10-23T10:49:48;3.10;;;2.80;;
4700;SDS011;8724;51.272;6.554;2022-10-23T10:52:32;3.57;;;2.67;;
4700;SDS011;8724;51.272;6.554;2022-10-23T10:55:16;4.50;;;3.00;;
4700;SDS011;8724;51.272;6.554;2022-10-23T10:57:49;4.17;;;2.80;;
4700;SDS011;8724;51.272;6.554;2022-10-23T11:00:42;2.53;;;2.33;;
4700;SDS011;8724;51.272;6.554;2022-10-23T11:03:17;3.40;;;2.40;;
4700;SDS011;8724;51.272;6.554;2022-10-23T11:05:54;2.30;;;2.10;;
4700;SDS011;8724;51.272;6.554;2022-10-23T11:08:26;3.17;;;2.37;;
4700;SDS011;8724;51.272;6.554;2022-10-23T11:11:23;3.53;;;2.57;;
4700;SDS011;8724;51.272;6.554;2022-10-23T11:13:54;3.43;;;2.30;;
4700;SDS011;8724;51.272;6.554;2022-10-23T11:16:25;2.03;;;1.60;;
4700;SDS011;8724;51.272;6.554;2022-10-23T11:18:59;2.60;;;1.70;;
4700;SDS011;8724;51.272;6.554;2022-10-23T11:21:39;2.67;;;2.30;;
4700;SDS011;8724;51.272;6.554;2022-10-23T11:24:19;1.87;;;1.60;;
4700;SDS011;8724;51.272;6.554;2022-10-23T11:27:05;2.33;;;1.73;;
4700;SDS011;8724;51.272;6.554;2022-10-23T11:29:52;1.70;;;1.60;;
4700;SDS011;8724;51.272;6.554;2022-10-23T11:32:45;2.20;;;1.80;;
4700;SDS011;8724;51.272;6.554;2022-10-23T11:35:40;2.50;;;2.07;;
4700;SDS011;8724;51.272;6.554;2022-10-23T11:38:16;1.77;;;1.60;;
4700;SDS011;8724;51.272;6.554;2022-10-23T11:40:49;4.40;;;2.43;;
4700;SDS011;8724;51.272;6.554;2022-10-23T11:43:26;2.67;;;2.10;;
4700;SDS011;8724;51.272;6.554;2022-10-23T11:45:56;18.23;;;15.30;;
4700;SDS011;8724;51.272;6.554;2022-10-23T11:48:35;17.57;;;15.03;;
4700;SDS011;8724;51.272;6.554;2022-10-23T11:51:05;10.33;;;9.20;;
4700;SDS011;8724;51.272;6.554;2022-10-23T11:53:48;8.30;;;7.17;;
4700;SDS011;8724;51.272;6.554;2022-10-23T11:56:24;5.40;;;4.90;;
4700;SDS011;8724;51.272;6.554;2022-10-23T11:58:56;4.50;;;4.10;;
4700;SDS011;8724;51.272;6.554;2022-10-23T12:01:30;4.07;;;3.13;;
4700;SDS011;8724;51.272;6.554;2022-10-23T12:04:15;3.63;;;3.33;;
4700;SDS011;8724;51.272;6.554;2022-10-23T12:06:48;2.63;;;2.43;;
4700;SDS011;8724;51.272;6.554;2022-10-23T12:09:23;2.23;;;2.10;;
4700;SDS011;8724;51.272;6.554;2022-10-23T12:12:01;2.10;;;1.90;;
4700;SDS011;8724;51.272;6.554;2022-10-23T12:14:42;3.27;;;1.80;;
4700;SDS011;8724;51.272;6.554;2022-10-23T12:17:28;3.00;;;1.87;;
4700;SDS011;8724;51.272;6.554;2022-10-23T12:22:53;6.23;;;1.50;;
4700;SDS011;8724;51.272;6.554;2022-10-23T12:25:40;1.67;;;1.50;;
4700;SDS011;8724;51.272;6.554;2022-10-23T12:28:23;1.77;;;1.50;;
4700;SDS011;8724;51.272;6.554;2022-10-23T12:31:02;1.60;;;1.50;;
4700;SDS011;8724;51.272;6.554;2022-10-23T12:33:45;3.33;;;1.50;;
4700;SDS011;8724;51.272;6.554;2022-10-23T12:36:27;1.20;;;1.10;;
4700;SDS011;8724;51.272;6.554;2022-10-23T12:39:26;1.83;;;1.60;;
4700;SDS011;8724;51.272;6.554;2022-10-23T12:41:55;3.43;;;1.63;;
4700;SDS011;8724;51.272;6.554;2022-10-23T12:44:23;3.30;;;1.87;;
4700;SDS011;8724;51.272;6.554;2022-10-23T12:46:55;1.50;;;1.30;;
4700;SDS011;8724;51.272;6.554;2022-10-23T12:49:26;2.20;;;1.40;;
4700;SDS011;8724;51.272;6.554;2022-10-23T12:51:59;1.80;;;1.70;;
4700;SDS011;8724;51.272;6.554;2022-10-23T12:54:30;2.70;;;1.73;;
4700;SDS011;8724;51.272;6.554;2022-10-23T12:57:00;1.60;;;1.50;;
4700;SDS011;8724;51.272;6.554;2022-10-23T12:59:32;2.33;;;1.80;;
4700;SDS011;8724;51.272;6.554;2022-10-23T13:02:12;2.47;;;1.57;;
4700;SDS011;8724;51.272;6.554;2022-10-23T13:04:48;1.90;;;1.57;;
4700;SDS011;8724;51.272;6.554;2022-10-23T13:07:19;2.13;;;1.60;;
4700;SDS011;8724;51.272;6.554;2022-10-23T13:09:54;1.80;;;1.50;;
4700;SDS011;8724;51.272;6.554;2022-10-23T13:12:28;2.10;;;1.60;;
4700;SDS011;8724;51.272;6.554;2022-10-23T13:14:59;3.43;;;1.30;;
4700;SDS011;8724;51.272;6.554;2022-10-23T13:17:32;1.80;;;1.70;;
4700;SDS011;8724;51.272;6.554;2022-10-23T13:22:58;2.20;;;1.60;;
4700;SDS011;8724;51.272;6.554;2022-10-23T13:25:29;3.73;;;1.50;;
4700;SDS011;8724;51.272;6.554;2022-10-23T13:28:04;2.50;;;1.43;;
4700;SDS011;8724;51.272;6.554;2022-10-23T13:30:56;2.73;;;1.70;;
4700;SDS011;8724;51.272;6.554;2022-10-23T13:33:49;1.50;;;1.30;;
4700;SDS011;8724;51.272;6.554;2022-10-23T13:36:30;3.13;;;1.40;;
4700;SDS011;8724;51.272;6.554;2022-10-23T13:39:03;1.77;;;1.67;;
4700;SDS011;8724;51.272;6.554;2022-10-23T13:41:41;5.50;;;1.53;;
4700;SDS011;8724;51.272;6.554;2022-10-23T13:44:11;2.67;;;1.97;;
4700;SDS011;8724;51.272;6.554;2022-10-23T13:46:40;20.77;;;17.97;;
4700;SDS011;8724;51.272;6.554;2022-10-23T13:49:09;34.87;;;27.47;;
4700;SDS011;8724;51.272;6.554;2022-10-23T13:51:39;30.00;;;23.20;;
4700;SDS011;8724;51.272;6.554;2022-10-23T13:54:13;24.60;;;16.73;;
4700;SDS011;8724;51.272;6.554;2022-10-23T13:56:43;16.63;;;12.93;;
4700;SDS011;8724;51.272;6.554;2022-10-23T13:59:12;11.40;;;9.63;;
4700;SDS011;8724;51.272;6.554;2022-10-23T14:01:41;11.80;;;8.73;;
4700;SDS011;8724;51.272;6.554;2022-10-23T14:04:11;6.20;;;5.50;;
4700;SDS011;8724;51.272;6.554;2022-10-23T14:06:40;7.83;;;5.50;;
4700;SDS011;8724;51.272;6.554;2022-10-23T14:09:10;8.00;;;4.80;;
4700;SDS011;8724;51.272;6.554;2022-10-23T14:11:43;4.20;;;3.87;;
4700;SDS011;8724;51.272;6.554;2022-10-23T14:14:12;4.17;;;3.70;;
4700;SDS011;8724;51.272;6.554;2022-10-23T14:16:40;3.63;;;3.33;;
4700;SDS011;8724;51.272;6.554;2022-10-23T14:19:09;3.17;;;2.70;;
4700;SDS011;8724;51.272;6.554;2022-10-23T14:21:38;3.40;;;2.97;;
4700;SDS011;8724;51.272;6.554;2022-10-23T14:24:07;3.10;;;2.50;;
4700;SDS011;8724;51.272;6.554;2022-10-23T14:26:35;2.60;;;2.40;;
4700;SDS011;8724;51.272;6.554;2022-10-23T14:29:05;1.97;;;1.80;;
4700;SDS011;8724;51.272;6.554;2022-10-23T14:31:41;2.50;;;1.67;;
4700;SDS011;8724;51.272;6.554;2022-10-23T14:34:10;2.70;;;1.90;;
4700;SDS011;8724;51.272;6.554;2022-10-23T14:36:38;3.17;;;2.07;;
4700;SDS011;8724;51.272;6.554;2022-10-23T14:39:16;1.40;;;1.30;;
4700;SDS011;8724;51.272;6.554;2022-10-23T14:41:44;1.73;;;1.63;;
4700;SDS011;8724;51.272;6.554;2022-10-23T14:44:14;1.83;;;1.60;;
4700;SDS011;8724;51.272;6.554;2022-10-23T14:46:43;2.57;;;1.77;;
4700;SDS011;8724;51.272;6.554;2022-10-23T14:49:11;2.30;;;2.10;;
4700;SDS011;8724;51.272;6.554;2022-10-23T14:51:39;3.00;;;2.10;;
4700;SDS011;8724;51.272;6.554;2022-10-23T14:54:07;2.53;;;1.47;;
4700;SDS011;8724;51.272;6.554;2022-10-23T14:56:36;3.27;;;2.37;;
4700;SDS011;8724;51.272;6.554;2022-10-23T14:59:06;2.33;;;1.67;;
4700;SDS011;8724;51.272;6.554;2022-10-23T15:01:38;2.90;;;2.00;;
4700;SDS011;8724;51.272;6.554;2022-10-23T15:04:11;2.80;;;1.73;;
4700;SDS011;8724;51.272;6.554;2022-10-23T15:06:41;2.40;;;1.80;;
4700;SDS011;8724;51.272;6.554;2022-10-23T15:09:10;2.30;;;2.10;;
4700;SDS011;8724;51.272;6.554;2022-10-23T15:11:39;6.73;;;1.80;;
4700;SDS011;8724;51.272;6.554;2022-10-23T15:14:07;2.60;;;2.23;;
4700;SDS011;8724;51.272;6.554;2022-10-23T15:16:38;2.20;;;1.87;;
4700;SDS011;8724;51.272;6.554;2022-10-23T15:19:08;2.40;;;2.20;;
4700;SDS011;8724;51.272;6.554;2022-10-23T15:21:43;3.10;;;2.07;;
4700;SDS011;8724;51.272;6.554;2022-10-23T15:24:12;2.43;;;1.87;;
4700;SDS011;8724;51.272;6.554;2022-10-23T15:26:40;3.07;;;2.27;;
4700;SDS011;8724;51.272;6.554;2022-10-23T15:29:09;2.13;;;1.93;;
4700;SDS011;8724;51.272;6.554;2022-10-23T15:31:42;2.00;;;1.90;;
4700;SDS011;8724;51.272;6.554;2022-10-23T15:34:13;2.23;;;2.03;;
4700;SDS011;8724;51.272;6.554;2022-10-23T15:36:43;3.33;;;1.60;;
4700;SDS011;8724;51.272;6.554;2022-10-23T15:39:13;4.00;;;2.00;;
4700;SDS011;8724;51.272;6.554;2022-10-23T15:41:43;2.87;;;1.90;;
4700;SDS011;8724;51.272;6.554;2022-10-23T15:44:13;2.27;;;1.70;;
4700;SDS011;8724;51.272;6.554;2022-10-23T15:46:44;3.40;;;2.40;;
4700;SDS011;8724;51.272;6.554;2022-10-23T15:49:13;2.13;;;1.93;;
4700;SDS011;8724;51.272;6.554;2022-10-23T15:51:42;2.70;;;2.23;;
4700;SDS011;8724;51.272;6.554;2022-10-23T15:54:11;2.53;;;2.33;;
4700;SDS011;8724;51.272;6.554;2022-10-23T15:56:44;2.80;;;2.20;;
4700;SDS011;8724;51.272;6.554;2022-10-23T15:59:13;2.10;;;2.00;;
4700;SDS011;8724;51.272;6.554;2022-10-23T16:01:42;7.90;;;2.40;;
4700;SDS011;8724;51.272;6.554;2022-10-23T16:04:12;3.10;;;2.57;;
4700;SDS011;8724;51.272;6.554;2022-10-23T16:06:41;2.63;;;2.40;;